Time;durP1;ratioP1;P1;durP2;ratioP2;P2;SDS_P1;SDS_P2;PMS_P1;PMS_P2;Temp;Humidity;BMP_temperature;BMP_pressure;BME280_temperature;BME280_humidity;BME280_pressure;Samples;Min_cycle;Max_cycle;Signal;HPM_P1;HPM_P2
2021/04/27 00:01:57;;;;;;;7.77;3.07;;;9.20;39.80;;;;;;5118273;28;20206;-74
2021/04/27 00:04:23;;;;;;;5.83;3.03;;;9.20;40.20;;;;;;5098582;28;20268;-73
2021/04/27 00:06:49;;;;;;;8.93;2.90;;;9.20;40.30;;;;;;5110462;28;20261;-73
2021/04/27 00:09:14;;;;;;;6.93;2.87;;;9.10;40.30;;;;;;5109513;28;20279;-75
2021/04/27 00:11:40;;;;;;;6.10;2.73;;;9.00;40.30;;;;;;5099563;28;20471;-75
2021/04/27 00:14:07;;;;;;;5.83;3.20;;;8.90;40.20;;;;;;5092440;28;20204;-75
2021/04/27 00:16:33;;;;;;;7.93;3.10;;;8.90;40.20;;;;;;5107748;28;20434;-74
2021/04/27 00:18:59;;;;;;;4.27;2.80;;;8.90;40.30;;;;;;5092345;28;20428;-73
2021/04/27 00:21:26;;;;;;;6.07;3.40;;;8.90;40.60;;;;;;5099189;28;20436;-73
2021/04/27 00:23:52;;;;;;;4.50;2.97;;;8.90;40.70;;;;;;5109799;28;20442;-75
2021/04/27 00:26:17;;;;;;;6.40;2.93;;;8.80;41.10;;;;;;5110232;28;20425;-75
2021/04/27 00:28:43;;;;;;;8.67;3.60;;;8.80;42.00;;;;;;5107768;28;20498;-74
2021/04/27 00:31:09;;;;;;;8.70;4.13;;;8.70;42.40;;;;;;5109425;28;20311;-74
2021/04/27 00:33:35;;;;;;;5.77;3.37;;;8.70;42.20;;;;;;5109084;28;20175;-75
2021/04/27 00:36:01;;;;;;;5.97;3.50;;;8.70;42.40;;;;;;5109792;28;20470;-74
2021/04/27 00:38:27;;;;;;;4.57;2.73;;;8.70;42.40;;;;;;5109722;28;20504;-73
2021/04/27 00:40:53;;;;;;;5.47;3.40;;;8.70;42.70;;;;;;5109318;28;20555;-73
2021/04/27 00:43:19;;;;;;;5.00;2.83;;;8.70;42.60;;;;;;5106475;28;20416;-74
2021/04/27 00:45:44;;;;;;;5.77;2.93;;;8.70;42.60;;;;;;5109728;28;20182;-74
2021/04/27 00:48:10;;;;;;;5.73;3.23;;;8.60;42.60;;;;;;5109893;28;20689;-75
2021/04/27 00:50:40;;;;;;;9.33;3.37;;;8.60;42.70;;;;;;5108915;28;20199;-73
2021/04/27 00:53:06;;;;;;;7.77;3.37;;;8.60;42.80;;;;;;5113110;28;20182;-73
2021/04/27 00:55:33;;;;;;;7.97;3.07;;;8.50;43.10;;;;;;5113603;28;20420;-73
2021/04/27 00:57:59;;;;;;;4.73;3.00;;;8.50;43.70;;;;;;5113626;28;20795;-72
2021/04/27 01:00:30;;;;;;;4.23;2.47;;;8.40;43.70;;;;;;5112592;28;20423;-73
2021/04/27 01:02:57;;;;;;;4.77;2.87;;;8.40;43.70;;;;;;5097701;28;20515;-74
2021/04/27 01:05:29;;;;;;;6.80;4.20;;;8.30;43.50;;;;;;5094179;28;20448;-74
2021/04/27 01:08:11;;;;;;;5.23;3.17;;;8.20;44.20;;;;;;5092900;28;20460;-73
2021/04/27 01:10:44;;;;;;;5.43;2.90;;;8.10;44.90;;;;;;5105773;28;20448;-74
2021/04/27 01:13:23;;;;;;;6.50;3.27;;;8.00;45.00;;;;;;5095550;28;20428;-73
2021/04/27 01:15:50;;;;;;;7.03;2.90;;;7.90;45.40;;;;;;5095594;28;20420;-73
2021/04/27 01:18:17;;;;;;;6.00;3.27;;;7.90;45.80;;;;;;5102327;28;20787;-75
2021/04/27 01:20:47;;;;;;;5.73;3.03;;;7.80;45.90;;;;;;5097689;28;20432;-74
2021/04/27 01:23:22;;;;;;;8.43;5.20;;;7.70;45.70;;;;;;5098453;28;20428;-75
2021/04/27 01:26:14;;;;;;;5.10;2.93;;;7.70;46.10;;;;;;5101828;28;20415;-76
2021/04/27 01:28:40;;;;;;;4.10;2.60;;;7.60;47.00;;;;;;5099312;28;20554;-75
2021/04/27 01:31:06;;;;;;;8.20;3.33;;;7.60;47.10;;;;;;5094478;28;20456;-75
2021/04/27 01:33:33;;;;;;;5.47;3.00;;;7.60;46.90;;;;;;5094164;28;20424;-74
2021/04/27 01:36:00;;;;;;;12.80;3.53;;;7.50;47.30;;;;;;5103564;28;20448;-75
2021/04/27 01:38:27;;;;;;;6.60;2.77;;;7.40;47.50;;;;;;5112313;28;20424;-75
2021/04/27 01:40:55;;;;;;;5.33;2.90;;;7.40;47.80;;;;;;5103489;28;20468;-74
2021/04/27 01:43:22;;;;;;;7.13;3.00;;;7.30;48.10;;;;;;5114173;27;20477;-75
2021/04/27 01:45:56;;;;;;;10.07;3.53;;;7.30;48.20;;;;;;5114903;28;20494;-75
2021/04/27 01:48:23;;;;;;;6.50;3.30;;;7.20;48.30;;;;;;5110586;28;20464;-75
2021/04/27 01:50:49;;;;;;;5.30;3.33;;;7.20;48.90;;;;;;5110824;28;20468;-76
2021/04/27 01:53:16;;;;;;;4.67;3.10;;;7.20;49.30;;;;;;5108929;28;20431;-76
2021/04/27 01:55:42;;;;;;;7.03;3.27;;;7.10;49.30;;;;;;5113310;28;20421;-76
2021/04/27 01:58:08;;;;;;;5.67;3.10;;;7.10;49.30;;;;;;5097088;28;21008;-78
2021/04/27 02:00:34;;;;;;;3.93;2.80;;;7.10;49.70;;;;;;5105208;28;20505;-75
2021/04/27 02:03:00;;;;;;;4.63;3.30;;;7.10;49.80;;;;;;5096919;28;20677;-75
2021/04/27 02:05:26;;;;;;;9.23;3.27;;;7.10;49.70;;;;;;5091925;28;20426;-76
2021/04/27 02:07:51;;;;;;;4.70;3.03;;;7.10;49.90;;;;;;5096323;28;20249;-73
2021/04/27 02:10:17;;;;;;;5.17;2.70;;;7.10;50.30;;;;;;5102613;28;20175;-77
2021/04/27 02:12:47;;;;;;;10.10;3.53;;;7.00;50.50;;;;;;5093583;28;20258;-77
2021/04/27 02:15:15;;;;;;;6.80;4.57;;;6.90;50.70;;;;;;5093726;28;20422;-76
2021/04/27 02:17:51;;;;;;;4.67;3.13;;;6.90;50.90;;;;;;5092354;28;20449;-77
2021/04/27 02:20:21;;;;;;;8.17;3.50;;;6.90;51.00;;;;;;5104852;28;20416;-76
2021/04/27 02:22:48;;;;;;;7.87;3.17;;;6.80;51.20;;;;;;5091930;28;20437;-76
2021/04/27 02:25:15;;;;;;;6.30;3.27;;;6.80;51.40;;;;;;5093474;28;20461;-75
2021/04/27 02:27:42;;;;;;;5.40;2.97;;;6.70;51.80;;;;;;5112043;28;20481;-75
2021/04/27 02:30:11;;;;;;;8.43;3.30;;;6.70;52.20;;;;;;5111344;28;20456;-77
2021/04/27 02:32:39;;;;;;;3.90;3.30;;;6.60;52.40;;;;;;5102036;28;20511;-75
2021/04/27 02:35:05;;;;;;;4.30;3.30;;;6.60;52.60;;;;;;5111499;28;20428;-74
2021/04/27 02:37:31;;;;;;;8.47;3.17;;;6.60;53.20;;;;;;5112663;28;20785;-76
2021/04/27 02:39:57;;;;;;;9.87;3.47;;;6.60;53.30;;;;;;5112986;28;20443;-74
2021/04/27 02:42:23;;;;;;;11.60;3.63;;;6.50;53.40;;;;;;5112877;28;20547;-76
2021/04/27 02:44:50;;;;;;;6.17;3.40;;;6.50;53.20;;;;;;5113585;28;20198;-74
2021/04/27 02:47:16;;;;;;;9.10;3.80;;;6.50;53.40;;;;;;5099914;28;20191;-77
2021/04/27 02:49:41;;;;;;;12.90;3.40;;;6.50;53.60;;;;;;5105239;28;20436;-77
2021/04/27 02:52:07;;;;;;;5.43;3.30;;;6.40;53.40;;;;;;5089454;28;20243;-74
2021/04/27 02:54:33;;;;;;;4.57;3.00;;;6.40;53.80;;;;;;5090242;28;20670;-76
2021/04/27 02:56:58;;;;;;;9.93;4.00;;;6.40;54.10;;;;;;5104086;28;20187;-73
2021/04/27 02:59:24;;;;;;;7.30;3.87;;;6.40;54.20;;;;;;5103828;28;20178;-75
2021/04/27 03:01:50;;;;;;;5.70;3.40;;;6.40;54.40;;;;;;5108915;28;20210;-75
2021/04/27 03:04:16;;;;;;;6.30;3.50;;;6.30;54.60;;;;;;5111100;28;20235;-73
2021/04/27 03:06:41;;;;;;;7.67;3.60;;;6.30;55.00;;;;;;5110689;28;20915;-75
2021/04/27 03:09:07;;;;;;;5.00;2.87;;;6.20;55.20;;;;;;5109937;28;20689;-72
2021/04/27 03:11:33;;;;;;;8.23;3.53;;;6.30;55.20;;;;;;5110370;28;20209;-73
2021/04/27 03:13:59;;;;;;;5.77;3.33;;;6.30;55.40;;;;;;5111594;28;20187;-70
2021/04/27 03:16:25;;;;;;;7.47;3.57;;;6.30;55.30;;;;;;5104627;28;20779;-72
2021/04/27 03:18:52;;;;;;;7.67;3.47;;;6.20;55.30;;;;;;5092195;28;20917;-72
2021/04/27 03:21:17;;;;;;;5.87;3.10;;;6.20;55.20;;;;;;5111784;28;20209;-73
2021/04/27 03:23:43;;;;;;;5.53;2.87;;;6.20;55.30;;;;;;5110639;28;20423;-73
2021/04/27 03:26:09;;;;;;;8.17;3.10;;;6.20;55.70;;;;;;5099947;28;20952;-74
2021/04/27 03:28:35;;;;;;;9.00;3.63;;;6.20;55.70;;;;;;5112015;28;20476;-75
2021/04/27 03:31:03;;;;;;;9.40;3.40;;;6.10;55.80;;;;;;5112706;28;20623;-75
2021/04/27 03:33:28;;;;;;;7.10;3.83;;;6.10;56.20;;;;;;5114755;28;20183;-77
2021/04/27 03:35:54;;;;;;;5.03;3.30;;;6.10;56.50;;;;;;5102095;28;20473;-75
2021/04/27 03:38:20;;;;;;;5.13;3.03;;;6.10;56.50;;;;;;5115814;28;20197;-76
2021/04/27 03:40:46;;;;;;;7.10;2.93;;;6.00;56.80;;;;;;5119565;28;20206;-74
2021/04/27 03:43:12;;;;;;;5.70;2.90;;;6.00;56.80;;;;;;5123596;28;20420;-75
2021/04/27 03:45:38;;;;;;;7.97;3.73;;;5.90;57.20;;;;;;5120582;28;20440;-74
2021/04/27 03:48:05;;;;;;;7.90;3.80;;;5.90;57.60;;;;;;5113981;28;20245;-77
2021/04/27 03:50:31;;;;;;;5.30;3.10;;;5.90;57.70;;;;;;5118593;28;20206;-75
2021/04/27 03:52:57;;;;;;;6.50;2.80;;;5.90;58.00;;;;;;5120469;28;20435;-73
2021/04/27 03:55:23;;;;;;;8.23;3.67;;;5.90;57.80;;;;;;5100476;28;20459;-76
2021/04/27 03:57:49;;;;;;;7.10;3.73;;;5.80;58.00;;;;;;5103701;28;20194;-75
2021/04/27 04:00:15;;;;;;;4.47;2.93;;;5.70;58.00;;;;;;5106917;28;20474;-75
2021/04/27 04:02:41;;;;;;;4.93;3.47;;;5.70;58.10;;;;;;5106860;28;20194;-76
2021/04/27 04:05:07;;;;;;;4.87;3.63;;;5.70;58.40;;;;;;5109650;28;20868;-74
2021/04/27 04:07:33;;;;;;;6.93;3.40;;;5.60;58.70;;;;;;5114736;28;20474;-74
2021/04/27 04:09:59;;;;;;;6.07;3.53;;;5.60;58.90;;;;;;5120870;28;20487;-76
2021/04/27 04:12:24;;;;;;;7.17;3.57;;;5.50;59.20;;;;;;5118275;28;20206;-75
2021/04/27 04:14:50;;;;;;;6.80;3.53;;;5.50;59.50;;;;;;5118018;28;20186;-75
2021/04/27 04:17:16;;;;;;;6.80;3.90;;;5.50;59.50;;;;;;5118084;28;20175;-76
2021/04/27 04:19:42;;;;;;;6.83;3.03;;;5.50;59.30;;;;;;5117830;28;20190;-74
2021/04/27 04:22:07;;;;;;;5.73;3.50;;;5.50;59.70;;;;;;5119842;28;20206;-75
2021/04/27 04:24:34;;;;;;;11.77;4.10;;;5.50;59.70;;;;;;5121487;28;20243;-74
2021/04/27 04:27:00;;;;;;;9.60;3.73;;;5.40;60.00;;;;;;5123295;28;20420;-75
2021/04/27 04:29:26;;;;;;;6.50;3.77;;;5.40;60.10;;;;;;5121984;28;20507;-75
2021/04/27 04:31:52;;;;;;;9.20;3.60;;;5.50;60.10;;;;;;5125122;28;20440;-75
2021/04/27 04:34:18;;;;;;;11.20;3.53;;;5.50;59.90;;;;;;5125514;28;20440;-75
2021/04/27 04:36:44;;;;;;;7.50;3.60;;;5.60;59.20;;;;;;5124329;28;20440;-75
2021/04/27 04:39:10;;;;;;;6.53;3.60;;;5.70;59.20;;;;;;5121339;28;20428;-75
2021/04/27 04:41:36;;;;;;;6.50;3.83;;;5.70;58.80;;;;;;5120790;28;20444;-68
2021/04/27 04:44:04;;;;;;;7.60;4.13;;;5.80;58.80;;;;;;5121493;28;20178;-70
2021/04/27 04:46:29;;;;;;;8.50;4.40;;;5.80;59.20;;;;;;5121438;28;20420;-69
2021/04/27 04:48:56;;;;;;;7.00;5.03;;;5.80;58.90;;;;;;5119948;28;20509;-71
2021/04/27 04:51:21;;;;;;;6.77;3.80;;;5.80;58.80;;;;;;5107884;27;20220;-70
2021/04/27 04:53:47;;;;;;;12.30;4.40;;;5.90;59.10;;;;;;5120461;28;20428;-71
2021/04/27 04:56:13;;;;;;;6.47;3.97;;;5.90;58.80;;;;;;5123132;28;20420;-70
2021/04/27 04:58:39;;;;;;;7.17;4.13;;;6.00;58.90;;;;;;5122129;28;20707;-70
2021/04/27 05:01:05;;;;;;;5.43;3.80;;;6.00;59.10;;;;;;5120967;28;20448;-70
2021/04/27 05:03:31;;;;;;;5.90;3.90;;;6.00;59.30;;;;;;5117926;28;20251;-71
2021/04/27 05:05:56;;;;;;;10.10;4.20;;;6.00;59.10;;;;;;5120318;28;20427;-69
2021/04/27 05:08:24;;;;;;;10.03;5.00;;;6.10;58.90;;;;;;5118376;28;20202;-71
2021/04/27 05:10:50;;;;;;;10.90;3.97;;;6.10;58.90;;;;;;5120787;28;20251;-74
2021/04/27 05:13:16;;;;;;;7.20;3.40;;;6.10;58.20;;;;;;5122229;28;20416;-74
2021/04/27 05:15:42;;;;;;;7.10;3.83;;;6.20;57.80;;;;;;5119466;28;20189;-75
2021/04/27 05:18:08;;;;;;;8.63;4.30;;;6.30;57.60;;;;;;5118064;28;20425;-72
2021/04/27 05:20:34;;;;;;;5.10;3.53;;;6.40;57.30;;;;;;5117017;28;20206;-75
2021/04/27 05:23:01;;;;;;;9.80;4.07;;;6.50;56.00;;;;;;5116787;28;20412;-73
2021/04/27 05:25:28;;;;;;;11.00;4.90;;;6.60;55.70;;;;;;5116541;28;20435;-74
2021/04/27 05:27:54;;;;;;;11.60;4.20;;;6.70;55.00;;;;;;5115914;28;20831;-72
2021/04/27 05:30:20;;;;;;;10.70;3.93;;;6.60;54.80;;;;;;5114029;28;20428;-74
2021/04/27 05:32:46;;;;;;;8.10;4.30;;;6.60;54.90;;;;;;5114061;28;20175;-74
2021/04/27 05:35:12;;;;;;;7.73;3.90;;;6.60;55.30;;;;;;5109738;28;21195;-75
2021/04/27 05:37:38;;;;;;;7.60;4.07;;;6.60;55.00;;;;;;5094521;28;20198;-73
2021/04/27 05:40:05;;;;;;;11.10;4.67;;;6.60;54.80;;;;;;5095249;28;20433;-75
2021/04/27 05:42:32;;;;;;;11.57;4.10;;;6.70;54.50;;;;;;5100636;28;20206;-73
2021/04/27 05:44:58;;;;;;;8.13;4.17;;;6.50;54.60;;;;;;5114694;28;20439;-75
2021/04/27 05:47:24;;;;;;;6.33;3.87;;;6.40;55.20;;;;;;5112539;28;20883;-74
2021/04/27 05:49:49;;;;;;;10.00;4.30;;;6.40;55.30;;;;;;5111360;28;20425;-74
2021/04/27 05:52:15;;;;;;;9.07;3.87;;;6.60;55.20;;;;;;5103741;28;20253;-72
2021/04/27 05:54:41;;;;;;;7.70;4.40;;;6.70;55.00;;;;;;5107829;28;20190;-73
2021/04/27 05:57:07;;;;;;;10.80;4.03;;;6.80;54.80;;;;;;5114116;28;20408;-73
2021/04/27 05:59:33;;;;;;;7.50;4.00;;;6.70;54.20;;;;;;5114287;28;20178;-72
2021/04/27 06:01:59;;;;;;;10.80;4.90;;;6.70;54.60;;;;;;5112599;28;20500;-73
2021/04/27 06:04:26;;;;;;;9.63;4.70;;;6.70;54.60;;;;;;5114314;28;20448;-72
2021/04/27 06:06:51;;;;;;;6.57;4.37;;;6.60;55.20;;;;;;5113519;28;20193;-74
2021/04/27 06:09:17;;;;;;;9.67;4.27;;;6.80;54.90;;;;;;5113413;28;20915;-73
2021/04/27 06:11:44;;;;;;;14.67;5.93;;;7.00;54.20;;;;;;5111365;28;20273;-73
2021/04/27 06:14:10;;;;;;;10.13;4.90;;;7.10;53.70;;;;;;5112487;28;20626;-72
2021/04/27 06:16:36;;;;;;;9.70;4.60;;;7.20;53.60;;;;;;5111806;28;20416;-72
2021/04/27 06:19:02;;;;;;;9.87;4.10;;;7.30;53.30;;;;;;5113547;28;20459;-72
2021/04/27 06:21:28;;;;;;;8.40;5.10;;;7.50;52.90;;;;;;5110791;28;20198;-74
2021/04/27 06:23:54;;;;;;;7.27;4.60;;;7.60;52.40;;;;;;5109805;28;20989;-72
2021/04/27 06:26:21;;;;;;;9.57;4.70;;;7.70;51.80;;;;;;5111247;28;20421;-73
2021/04/27 06:28:47;;;;;;;8.67;5.07;;;7.70;51.70;;;;;;5084796;28;774362;-74
2021/04/27 06:31:12;;;;;;;11.93;5.50;;;7.80;51.60;;;;;;5112975;28;20923;-73
2021/04/27 06:33:38;;;;;;;10.37;5.10;;;7.90;51.70;;;;;;5111688;28;20270;-74
2021/04/27 06:36:05;;;;;;;8.60;5.07;;;7.90;51.20;;;;;;5110095;28;20197;-74
2021/04/27 06:38:31;;;;;;;9.90;4.93;;;8.00;50.90;;;;;;5109530;28;20213;-74
2021/04/27 06:40:57;;;;;;;8.73;5.10;;;7.90;50.70;;;;;;5110582;28;20464;-75
2021/04/27 06:43:23;;;;;;;10.30;5.00;;;7.90;51.00;;;;;;5114111;28;20190;-72
2021/04/27 06:45:49;;;;;;;10.27;5.70;;;7.80;51.20;;;;;;5116376;28;20940;-74
2021/04/27 06:48:16;;;;;;;11.47;5.73;;;7.90;51.40;;;;;;5113056;28;20959;-74
2021/04/27 06:50:42;;;;;;;7.43;5.13;;;8.00;51.70;;;;;;5109391;28;21346;-73
2021/04/27 06:53:09;;;;;;;9.37;4.80;;;8.00;51.80;;;;;;5112335;28;20424;-74
2021/04/27 06:55:36;;;;;;;15.20;5.90;;;7.80;52.60;;;;;;5110496;28;20722;-73
2021/04/27 06:58:07;;;;;;;9.77;5.47;;;7.70;53.00;;;;;;5109600;28;20428;-74
2021/04/27 07:00:34;;;;;;;8.73;5.03;;;7.80;53.00;;;;;;5109230;28;20456;-75
2021/04/27 07:03:00;;;;;;;8.00;5.20;;;7.80;52.50;;;;;;5109093;28;20493;-74
2021/04/27 07:05:27;;;;;;;11.37;5.53;;;7.90;52.80;;;;;;5099307;28;20425;-75
2021/04/27 07:07:53;;;;;;;10.07;5.70;;;8.00;52.40;;;;;;5107778;28;20198;-74
2021/04/27 07:10:19;;;;;;;10.80;6.00;;;8.00;51.70;;;;;;5110450;27;20416;-73
2021/04/27 07:12:45;;;;;;;10.03;5.50;;;8.00;51.80;;;;;;5112407;28;20439;-73
2021/04/27 07:15:11;;;;;;;10.97;5.83;;;8.00;51.70;;;;;;5122792;28;20544;-74
2021/04/27 07:17:37;;;;;;;13.20;5.60;;;8.10;51.70;;;;;;5119183;28;20182;-74
2021/04/27 07:20:04;;;;;;;12.37;5.10;;;8.00;52.10;;;;;;5110649;28;20564;-74
2021/04/27 07:22:31;;;;;;;8.07;5.17;;;8.20;52.40;;;;;;5110651;28;20209;-73
2021/04/27 07:24:57;;;;;;;10.93;5.30;;;8.20;51.80;;;;;;5111027;28;20450;-74
2021/04/27 07:27:23;;;;;;;12.90;5.63;;;8.10;52.20;;;;;;5109481;28;20428;-75
2021/04/27 07:29:48;;;;;;;11.17;5.87;;;8.20;52.00;;;;;;5110271;28;20444;-71
2021/04/27 07:32:14;;;;;;;11.10;6.33;;;8.20;52.20;;;;;;5110081;28;20972;-73
2021/04/27 07:34:41;;;;;;;10.37;6.57;;;8.30;52.00;;;;;;5098666;28;20263;-72
2021/04/27 07:37:07;;;;;;;9.10;5.37;;;8.40;51.70;;;;;;5090618;28;20796;-72
2021/04/27 07:39:33;;;;;;;8.03;5.50;;;8.50;51.80;;;;;;5089547;28;20445;-72
2021/04/27 07:41:59;;;;;;;8.73;5.80;;;8.60;51.00;;;;;;5096373;28;20443;-73
2021/04/27 07:44:25;;;;;;;13.20;6.00;;;8.70;51.00;;;;;;5103490;28;20421;-75
2021/04/27 07:46:51;;;;;;;14.10;6.40;;;8.60;51.00;;;;;;5110929;28;20511;-77
2021/04/27 07:49:18;;;;;;;8.37;5.57;;;8.60;51.40;;;;;;5112523;28;20474;-74
2021/04/27 07:51:43;;;;;;;11.23;6.40;;;8.70;51.20;;;;;;5113889;28;20436;-74
2021/04/27 07:54:09;;;;;;;15.43;5.83;;;8.80;51.00;;;;;;5113183;28;20465;-72
2021/04/27 07:56:35;;;;;;;17.30;6.43;;;8.90;50.90;;;;;;5111000;28;20178;-72
2021/04/27 07:59:03;;;;;;;9.50;5.77;;;9.10;50.70;;;;;;5110319;28;20189;-74
2021/04/27 08:01:30;;;;;;;18.73;6.80;;;9.20;50.60;;;;;;5109379;27;20466;-74
2021/04/27 08:03:56;;;;;;;16.90;6.03;;;9.30;49.70;;;;;;5110257;28;20463;-75
2021/04/27 08:06:22;;;;;;;12.40;6.47;;;9.50;49.10;;;;;;5110505;28;20456;-75
2021/04/27 08:08:48;;;;;;;12.30;6.87;;;9.50;48.50;;;;;;5109529;28;20206;-74
2021/04/27 08:11:15;;;;;;;13.70;7.73;;;9.50;48.70;;;;;;5108193;28;20205;-75
2021/04/27 08:13:40;;;;;;;15.13;6.80;;;9.50;48.90;;;;;;5110192;28;20469;-72
2021/04/27 08:16:06;;;;;;;14.70;6.60;;;9.40;48.90;;;;;;5110932;28;20543;-73
2021/04/27 08:18:35;;;;;;;13.57;6.97;;;9.50;49.50;;;;;;5111337;28;20623;-75
2021/04/27 08:21:01;;;;;;;14.90;6.40;;;9.70;49.10;;;;;;5110693;28;20444;-74
2021/04/27 08:23:27;;;;;;;11.87;6.20;;;9.80;49.00;;;;;;5111084;28;20431;-74
2021/04/27 08:25:53;;;;;;;12.43;6.40;;;9.80;48.50;;;;;;5111622;28;20519;-74
2021/04/27 08:28:18;;;;;;;13.93;7.17;;;9.70;48.90;;;;;;5111347;28;20210;-76
2021/04/27 08:30:44;;;;;;;9.97;6.67;;;9.90;48.20;;;;;;5109203;28;20698;-74
2021/04/27 08:33:10;;;;;;;14.00;7.17;;;10.00;48.10;;;;;;5108889;28;20186;-72
2021/04/27 08:35:36;;;;;;;21.10;7.53;;;10.00;47.70;;;;;;5110182;28;20443;-73
2021/04/27 08:38:02;;;;;;;12.20;7.80;;;9.80;47.90;;;;;;5110020;28;20208;-72
2021/04/27 08:40:28;;;;;;;12.60;6.50;;;10.00;48.30;;;;;;5109601;28;20430;-73
2021/04/27 08:42:53;;;;;;;13.70;7.60;;;10.10;47.80;;;;;;5110194;28;20912;-72
2021/04/27 08:45:19;;;;;;;12.90;8.20;;;10.20;47.70;;;;;;5110336;28;20251;-71
2021/04/27 08:47:46;;;;;;;13.93;7.20;;;10.30;47.40;;;;;;5110383;28;20234;-74
2021/04/27 08:50:14;;;;;;;12.90;7.10;;;10.40;47.00;;;;;;5108933;28;20186;-74
2021/04/27 08:52:41;;;;;;;18.80;7.80;;;10.60;46.60;;;;;;5110498;28;20416;-72
2021/04/27 08:55:08;;;;;;;15.33;7.73;;;10.70;46.20;;;;;;5112116;28;20432;-71
2021/04/27 08:57:34;;;;;;;12.60;7.07;;;10.50;46.50;;;;;;5111378;28;20416;-75
2021/04/27 09:00:00;;;;;;;14.70;7.70;;;10.50;47.30;;;;;;5109731;28;20898;-73
2021/04/27 09:02:30;;;;;;;13.27;7.50;;;10.70;47.10;;;;;;5112072;28;20509;-72
2021/04/27 09:04:57;;;;;;;12.97;7.23;;;10.60;47.00;;;;;;5100115;28;20924;-72
2021/04/27 09:07:24;;;;;;;13.80;7.30;;;10.70;47.50;;;;;;5098129;28;20435;-71
2021/04/27 09:09:57;;;;;;;18.77;7.27;;;10.90;47.10;;;;;;5097803;28;21141;-74
2021/04/27 09:12:25;;;;;;;14.07;8.20;;;11.00;46.50;;;;;;5116908;28;20436;-72
2021/04/27 09:14:51;;;;;;;11.27;7.20;;;11.00;46.30;;;;;;5115317;28;20458;-73
2021/04/27 09:17:17;;;;;;;12.40;7.40;;;11.20;45.80;;;;;;5113877;28;20444;-73
2021/04/27 09:19:55;;;;;;;17.57;7.53;;;11.20;45.40;;;;;;5101883;28;20420;-72
2021/04/27 09:22:23;;;;;;;12.10;7.70;;;11.40;45.80;;;;;;5111680;28;20888;-73
2021/04/27 09:24:53;;;;;;;12.93;7.10;;;11.60;45.30;;;;;;5116061;27;20408;-74
2021/04/27 09:27:32;;;;;;;12.43;7.57;;;11.60;44.90;;;;;;5102441;28;20416;-73
2021/04/27 09:30:19;;;;;;;16.27;8.00;;;11.60;45.10;;;;;;5110702;28;20448;-75
2021/04/27 09:32:52;;;;;;;20.40;8.33;;;11.60;45.40;;;;;;5097565;28;20423;-73
2021/04/27 09:35:33;;;;;;;16.20;7.10;;;11.70;45.00;;;;;;5099711;28;20488;-74
2021/04/27 09:38:20;;;;;;;15.20;8.00;;;11.70;45.40;;;;;;5113495;28;20507;-74
2021/04/27 09:40:47;;;;;;;12.80;7.10;;;11.90;44.70;;;;;;5112171;28;20777;-72
2021/04/27 09:43:16;;;;;;;11.77;7.40;;;11.90;44.70;;;;;;5111133;28;20428;-72
2021/04/27 09:45:49;;;;;;;10.90;7.10;;;12.00;45.00;;;;;;5094044;28;20413;-72
2021/04/27 09:48:38;;;;;;;13.50;7.27;;;12.20;43.80;;;;;;5106276;28;20560;-77
2021/04/27 09:51:13;;;;;;;13.53;7.73;;;12.00;44.10;;;;;;5092117;28;20575;-72
2021/04/27 09:53:51;;;;;;;17.13;8.97;;;12.00;44.30;;;;;;5098682;28;20472;-73
2021/04/27 09:56:49;;;;;;;13.10;7.83;;;12.20;43.80;;;;;;5113265;28;20763;-74
2021/04/27 09:59:18;;;;;;;15.07;7.90;;;12.30;43.70;;;;;;5112385;28;20491;-74
2021/04/27 10:01:49;;;;;;;17.13;8.17;;;12.30;43.90;;;;;;5105013;28;20843;-72
2021/04/27 10:04:15;;;;;;;17.10;7.80;;;12.30;43.80;;;;;;5104606;28;20967;-74
2021/04/27 10:06:43;;;;;;;12.17;8.17;;;12.50;43.40;;;;;;5103687;28;20447;-75
2021/04/27 10:09:10;;;;;;;14.37;8.57;;;12.70;43.40;;;;;;5091556;28;20754;-72
2021/04/27 10:11:36;;;;;;;15.40;8.60;;;12.80;42.80;;;;;;5111308;28;20875;-72
2021/04/27 10:14:04;;;;;;;11.97;7.30;;;13.00;42.40;;;;;;5098229;28;20413;-76
2021/04/27 10:16:31;;;;;;;17.30;8.73;;;12.90;42.40;;;;;;5092089;28;20449;-74
2021/04/27 10:18:57;;;;;;;14.53;8.17;;;13.00;42.40;;;;;;5093962;28;20417;-76
2021/04/27 10:21:24;;;;;;;13.27;8.07;;;13.10;42.20;;;;;;5113867;28;20444;-72
2021/04/27 10:23:52;;;;;;;16.60;8.83;;;13.20;41.60;;;;;;5096002;28;20194;-75
2021/04/27 10:26:23;;;;;;;18.87;8.83;;;13.10;41.80;;;;;;5092534;28;20909;-75
2021/04/27 10:29:00;;;;;;;17.17;7.70;;;13.40;41.80;;;;;;5107587;28;20815;-74
2021/04/27 10:31:27;;;;;;;17.20;9.20;;;13.50;41.00;;;;;;5111360;28;20436;-74
2021/04/27 10:34:18;;;;;;;19.13;8.80;;;13.50;40.80;;;;;;5105804;28;20788;-72
2021/04/27 10:36:49;;;;;;;13.80;8.80;;;14.00;40.60;;;;;;5085515;28;20425;-74
2021/04/27 10:39:34;;;;;;;13.40;8.67;;;14.50;38.80;;;;;;5110966;28;20425;-74
2021/04/27 10:42:21;;;;;;;18.27;8.47;;;14.80;37.90;;;;;;5111193;28;20427;-74
2021/04/27 10:44:55;;;;;;;13.50;8.70;;;15.00;37.60;;;;;;5111358;28;20460;-76
2021/04/27 10:47:21;;;;;;;18.63;9.30;;;15.40;37.20;;;;;;5099916;28;21242;-74
2021/04/27 10:49:47;;;;;;;14.03;7.97;;;15.50;36.60;;;;;;5118903;28;20455;-74
2021/04/27 10:52:30;;;;;;;17.10;8.90;;;15.30;37.00;;;;;;5123130;28;20433;-74
2021/04/27 10:55:22;;;;;;;14.53;8.80;;;15.60;37.10;;;;;;5122512;28;20427;-73
2021/04/27 10:57:49;;;;;;;18.07;10.20;;;15.80;35.90;;;;;;5114276;28;20431;-74
2021/04/27 11:00:40;;;;;;;19.37;8.33;;;15.90;35.90;;;;;;5113121;28;20407;-76
2021/04/27 11:03:28;;;;;;;17.00;9.13;;;16.00;35.60;;;;;;5111843;28;20415;-73
2021/04/27 11:06:04;;;;;;;12.20;8.77;;;15.70;36.00;;;;;;5113145;28;20930;-73
2021/04/27 11:08:57;;;;;;;14.77;8.83;;;15.80;35.60;;;;;;5113704;28;21158;-73
2021/04/27 11:11:31;;;;;;;18.53;8.67;;;16.00;35.10;;;;;;5107637;28;20454;-73
2021/04/27 11:14:29;;;;;;;16.70;9.50;;;16.00;34.80;;;;;;5111553;28;20417;-75
2021/04/27 11:16:57;;;;;;;19.50;9.77;;;16.10;34.80;;;;;;5047442;28;20434;-73
2021/04/27 11:19:28;;;;;;;14.40;8.40;;;16.20;35.10;;;;;;5029143;28;20569;-74
2021/04/27 11:22:20;;;;;;;18.70;9.20;;;16.20;35.10;;;;;;5027715;28;20568;-74
2021/04/27 11:24:47;;;;;;;14.57;8.50;;;16.50;34.30;;;;;;5032028;28;20485;-72
2021/04/27 11:27:28;;;;;;;17.93;9.50;;;16.50;32.40;;;;;;5033811;28;20434;-73
2021/04/27 11:30:04;;;;;;;16.23;9.33;;;15.90;33.20;;;;;;5048075;28;20527;-73
2021/04/27 11:32:32;;;;;;;16.30;9.40;;;15.90;33.70;;;;;;5054712;28;20481;-72
2021/04/27 11:34:59;;;;;;;14.10;8.93;;;16.20;33.20;;;;;;5050119;28;20483;-74
2021/04/27 11:37:25;;;;;;;15.80;8.50;;;16.60;32.70;;;;;;5043765;28;20504;-75
2021/04/27 11:39:52;;;;;;;18.50;9.50;;;16.90;31.90;;;;;;5042672;28;20458;-72
2021/04/27 11:42:30;;;;;;;12.07;8.20;;;17.00;31.50;;;;;;5049194;28;20234;-71
2021/04/27 11:45:05;;;;;;;15.30;8.40;;;16.80;32.50;;;;;;5036310;28;20423;-73
2021/04/27 11:47:39;;;;;;;16.37;9.60;;;17.00;32.10;;;;;;5031858;28;20423;-74
2021/04/27 11:50:11;;;;;;;17.80;9.00;;;17.00;32.50;;;;;;5046271;28;20459;-73
2021/04/27 11:52:47;;;;;;;16.63;8.77;;;17.30;31.60;;;;;;5075918;28;20452;-76
2021/04/27 11:55:21;;;;;;;16.33;8.53;;;17.40;31.30;;;;;;5111660;28;20432;-73
2021/04/27 11:57:51;;;;;;;17.90;9.80;;;17.60;31.10;;;;;;5112616;28;20428;-72
2021/04/27 12:00:18;;;;;;;17.97;9.40;;;17.40;30.90;;;;;;5099571;28;20431;-75
2021/04/27 12:02:44;;;;;;;19.50;8.50;;;17.40;30.50;;;;;;5111069;28;20488;-75
2021/04/27 12:05:10;;;;;;;15.77;8.90;;;17.20;30.70;;;;;;5102456;28;20436;-75
2021/04/27 12:07:36;;;;;;;17.47;9.47;;;17.20;30.40;;;;;;5092474;28;20500;-76
2021/04/27 12:10:04;;;;;;;15.17;8.77;;;17.20;29.90;;;;;;5099036;28;21030;-75
2021/04/27 12:12:30;;;;;;;16.20;8.03;;;17.20;29.80;;;;;;5109112;28;20441;-74
2021/04/27 12:14:59;;;;;;;14.73;8.20;;;16.90;29.50;;;;;;5110264;28;20474;-75
2021/04/27 12:17:34;;;;;;;12.53;8.00;;;17.10;29.30;;;;;;5109431;28;20185;-74
2021/04/27 12:20:06;;;;;;;14.43;8.90;;;16.90;29.50;;;;;;5109986;28;20423;-72
2021/04/27 12:22:31;;;;;;;15.30;8.37;;;17.10;29.90;;;;;;5096556;28;20472;-73
2021/04/27 12:24:57;;;;;;;15.77;9.40;;;17.20;29.80;;;;;;5111317;28;20840;-73
2021/04/27 12:27:24;;;;;;;16.03;8.83;;;17.30;29.50;;;;;;5108788;28;20199;-73
2021/04/27 12:29:57;;;;;;;15.87;8.73;;;17.30;29.60;;;;;;5108413;28;20222;-73
2021/04/27 12:32:32;;;;;;;13.87;8.60;;;17.40;29.70;;;;;;5120842;28;20452;-74
2021/04/27 12:35:01;;;;;;;17.90;9.23;;;17.70;29.40;;;;;;5125614;28;20427;-72
2021/04/27 12:37:30;;;;;;;13.37;8.43;;;18.00;29.00;;;;;;5100744;28;20415;-72
2021/04/27 12:39:57;;;;;;;12.10;8.13;;;17.90;29.00;;;;;;5097762;28;20412;-71
2021/04/27 12:42:26;;;;;;;14.63;8.57;;;18.30;29.20;;;;;;5109869;28;20447;-74
2021/04/27 12:44:59;;;;;;;13.90;7.67;;;18.30;28.20;;;;;;5109850;28;20758;-73
2021/04/27 12:47:30;;;;;;;13.80;8.30;;;18.10;28.00;;;;;;5101461;28;20420;-76
2021/04/27 12:50:11;;;;;;;13.80;7.57;;;17.90;28.30;;;;;;5102721;27;20471;-73
2021/04/27 12:52:54;;;;;;;16.00;8.27;;;18.10;28.20;;;;;;5105263;28;20492;-72
2021/04/27 12:55:30;;;;;;;13.73;8.80;;;18.10;28.10;;;;;;5110402;28;20415;-72